Webcam Flughafen St.Gallen-Altenrhein

Live-Bilder und Zeitraffer LSZR / ACH.

 

Live aus Altenrhein
LIVE
LSZR 170220Z AUTO 27003KT 200V310 9999 OVC009 04/03 Q1008
Zeitraffer heute
2019-11-17 00:14:38
LSZR 162250Z AUTO VRB02KT 9999 BKN009 04/03 Q1011